sensor_id;sensor_type;location;lat;lon;timestamp;P1;durP1;ratioP1;P2;durP2;ratioP2
14965;SDS011;7577;45.226;5.798;2022-11-20T00:00:27;5.17;;;4.00;;
14965;SDS011;7577;45.226;5.798;2022-11-20T00:02:57;6.73;;;4.00;;
14965;SDS011;7577;45.226;5.798;2022-11-20T00:05:27;4.57;;;3.00;;
14965;SDS011;7577;45.226;5.798;2022-11-20T00:07:59;4.63;;;3.00;;
14965;SDS011;7577;45.226;5.798;2022-11-20T00:10:39;3.53;;;2.50;;
14965;SDS011;7577;45.226;5.798;2022-11-20T00:13:10;5.27;;;3.07;;
14965;SDS011;7577;45.226;5.798;2022-11-20T00:15:40;3.83;;;2.97;;
14965;SDS011;7577;45.226;5.798;2022-11-20T00:18:10;5.10;;;2.60;;
14965;SDS011;7577;45.226;5.798;2022-11-20T00:20:41;5.00;;;2.50;;
14965;SDS011;7577;45.226;5.798;2022-11-20T00:23:11;3.80;;;2.70;;
14965;SDS011;7577;45.226;5.798;2022-11-20T00:25:41;4.90;;;3.20;;
14965;SDS011;7577;45.226;5.798;2022-11-20T00:28:11;5.60;;;3.23;;
14965;SDS011;7577;45.226;5.798;2022-11-20T00:30:41;5.37;;;3.23;;
14965;SDS011;7577;45.226;5.798;2022-11-20T00:33:22;5.27;;;3.20;;
14965;SDS011;7577;45.226;5.798;2022-11-20T00:35:52;4.83;;;2.53;;
14965;SDS011;7577;45.226;5.798;2022-11-20T00:38:22;5.60;;;2.97;;
14965;SDS011;7577;45.226;5.798;2022-11-20T00:40:54;6.10;;;2.77;;
14965;SDS011;7577;45.226;5.798;2022-11-20T00:43:26;5.63;;;3.20;;
14965;SDS011;7577;45.226;5.798;2022-11-20T00:45:57;7.03;;;3.00;;
14965;SDS011;7577;45.226;5.798;2022-11-20T00:48:28;4.73;;;2.63;;
14965;SDS011;7577;45.226;5.798;2022-11-20T00:50:58;5.07;;;2.77;;
14965;SDS011;7577;45.226;5.798;2022-11-20T00:53:28;4.07;;;2.57;;
14965;SDS011;7577;45.226;5.798;2022-11-20T00:56:00;4.87;;;3.20;;
14965;SDS011;7577;45.226;5.798;2022-11-20T00:58:41;5.17;;;2.53;;
14965;SDS011;7577;45.226;5.798;2022-11-20T01:01:13;5.77;;;2.97;;
14965;SDS011;7577;45.226;5.798;2022-11-20T01:03:45;5.03;;;3.03;;
14965;SDS011;7577;45.226;5.798;2022-11-20T01:06:33;7.07;;;3.63;;
14965;SDS011;7577;45.226;5.798;2022-11-20T01:09:06;5.93;;;3.00;;
14965;SDS011;7577;45.226;5.798;2022-11-20T01:11:39;3.30;;;2.60;;
14965;SDS011;7577;45.226;5.798;2022-11-20T01:14:12;3.17;;;2.20;;
14965;SDS011;7577;45.226;5.798;2022-11-20T01:16:44;4.20;;;2.60;;
14965;SDS011;7577;45.226;5.798;2022-11-20T01:19:16;4.07;;;2.53;;
14965;SDS011;7577;45.226;5.798;2022-11-20T01:21:50;3.30;;;2.20;;
14965;SDS011;7577;45.226;5.798;2022-11-20T01:24:21;3.83;;;2.23;;
14965;SDS011;7577;45.226;5.798;2022-11-20T01:26:51;3.17;;;2.03;;
14965;SDS011;7577;45.226;5.798;2022-11-20T01:29:22;2.60;;;1.80;;
14965;SDS011;7577;45.226;5.798;2022-11-20T01:31:53;3.60;;;1.70;;
14965;SDS011;7577;45.226;5.798;2022-11-20T01:34:23;2.77;;;1.97;;
14965;SDS011;7577;45.226;5.798;2022-11-20T01:36:54;5.27;;;2.20;;
14965;SDS011;7577;45.226;5.798;2022-11-20T01:39:25;2.43;;;1.80;;
14965;SDS011;7577;45.226;5.798;2022-11-20T01:41:57;2.30;;;2.10;;
14965;SDS011;7577;45.226;5.798;2022-11-20T01:44:52;2.37;;;1.70;;
14965;SDS011;7577;45.226;5.798;2022-11-20T01:47:27;3.13;;;2.27;;
14965;SDS011;7577;45.226;5.798;2022-11-20T01:50:10;3.77;;;2.40;;
14965;SDS011;7577;45.226;5.798;2022-11-20T01:52:44;3.83;;;2.10;;
14965;SDS011;7577;45.226;5.798;2022-11-20T01:55:17;2.53;;;2.03;;
14965;SDS011;7577;45.226;5.798;2022-11-20T01:57:50;2.97;;;2.50;;
14965;SDS011;7577;45.226;5.798;2022-11-20T02:00:30;2.70;;;2.13;;
14965;SDS011;7577;45.226;5.798;2022-11-20T02:03:01;3.53;;;2.20;;
14965;SDS011;7577;45.226;5.798;2022-11-20T02:05:34;4.50;;;2.30;;
14965;SDS011;7577;45.226;5.798;2022-11-20T02:08:06;4.23;;;2.00;;
14965;SDS011;7577;45.226;5.798;2022-11-20T02:10:54;2.27;;;2.07;;
14965;SDS011;7577;45.226;5.798;2022-11-20T02:13:24;2.63;;;1.70;;
14965;SDS011;7577;45.226;5.798;2022-11-20T02:16:16;2.57;;;1.90;;
14965;SDS011;7577;45.226;5.798;2022-11-20T02:18:50;2.83;;;2.10;;
14965;SDS011;7577;45.226;5.798;2022-11-20T02:21:24;2.40;;;1.83;;
14965;SDS011;7577;45.226;5.798;2022-11-20T02:24:02;3.17;;;1.80;;
14965;SDS011;7577;45.226;5.798;2022-11-20T02:26:35;4.13;;;1.50;;
14965;SDS011;7577;45.226;5.798;2022-11-20T02:29:09;3.43;;;2.50;;
14965;SDS011;7577;45.226;5.798;2022-11-20T02:31:40;2.90;;;2.17;;
14965;SDS011;7577;45.226;5.798;2022-11-20T02:34:12;3.50;;;2.10;;
14965;SDS011;7577;45.226;5.798;2022-11-20T02:36:42;4.70;;;2.40;;
14965;SDS011;7577;45.226;5.798;2022-11-20T02:39:14;2.70;;;1.90;;
14965;SDS011;7577;45.226;5.798;2022-11-20T02:41:45;2.70;;;1.53;;
14965;SDS011;7577;45.226;5.798;2022-11-20T02:44:15;3.63;;;2.07;;
14965;SDS011;7577;45.226;5.798;2022-11-20T02:46:45;3.23;;;1.47;;
14965;SDS011;7577;45.226;5.798;2022-11-20T02:49:26;2.63;;;1.90;;
14965;SDS011;7577;45.226;5.798;2022-11-20T02:51:56;2.77;;;2.17;;
14965;SDS011;7577;45.226;5.798;2022-11-20T02:54:26;2.87;;;1.70;;
14965;SDS011;7577;45.226;5.798;2022-11-20T02:56:56;2.23;;;2.03;;
14965;SDS011;7577;45.226;5.798;2022-11-20T02:59:26;2.23;;;1.87;;
14965;SDS011;7577;45.226;5.798;2022-11-20T03:02:07;4.37;;;2.43;;
14965;SDS011;7577;45.226;5.798;2022-11-20T03:04:37;4.73;;;1.97;;
14965;SDS011;7577;45.226;5.798;2022-11-20T03:07:18;2.67;;;1.87;;
14965;SDS011;7577;45.226;5.798;2022-11-20T03:09:48;2.40;;;2.03;;
14965;SDS011;7577;45.226;5.798;2022-11-20T03:12:18;4.30;;;2.43;;
14965;SDS011;7577;45.226;5.798;2022-11-20T03:14:48;2.70;;;1.87;;
14965;SDS011;7577;45.226;5.798;2022-11-20T03:17:18;3.00;;;2.30;;
14965;SDS011;7577;45.226;5.798;2022-11-20T03:19:49;4.63;;;2.17;;
14965;SDS011;7577;45.226;5.798;2022-11-20T03:22:19;4.03;;;2.47;;
14965;SDS011;7577;45.226;5.798;2022-11-20T03:24:50;3.50;;;2.43;;
14965;SDS011;7577;45.226;5.798;2022-11-20T03:27:21;3.67;;;2.70;;
14965;SDS011;7577;45.226;5.798;2022-11-20T03:29:51;6.63;;;2.40;;
14965;SDS011;7577;45.226;5.798;2022-11-20T03:32:22;4.27;;;2.30;;
14965;SDS011;7577;45.226;5.798;2022-11-20T03:34:52;4.30;;;2.50;;
14965;SDS011;7577;45.226;5.798;2022-11-20T03:37:22;3.07;;;2.10;;
14965;SDS011;7577;45.226;5.798;2022-11-20T03:39:54;3.17;;;2.87;;
14965;SDS011;7577;45.226;5.798;2022-11-20T03:42:37;4.80;;;2.47;;
14965;SDS011;7577;45.226;5.798;2022-11-20T03:45:13;3.63;;;2.47;;
14965;SDS011;7577;45.226;5.798;2022-11-20T03:47:45;3.10;;;2.07;;
14965;SDS011;7577;45.226;5.798;2022-11-20T03:50:16;2.83;;;2.37;;
14965;SDS011;7577;45.226;5.798;2022-11-20T03:53:00;2.57;;;2.37;;
14965;SDS011;7577;45.226;5.798;2022-11-20T03:55:30;3.50;;;2.40;;
14965;SDS011;7577;45.226;5.798;2022-11-20T03:58:01;3.67;;;2.23;;
14965;SDS011;7577;45.226;5.798;2022-11-20T04:00:31;2.93;;;2.17;;
14965;SDS011;7577;45.226;5.798;2022-11-20T04:03:01;5.03;;;2.20;;
14965;SDS011;7577;45.226;5.798;2022-11-20T04:05:33;4.77;;;2.30;;
14965;SDS011;7577;45.226;5.798;2022-11-20T04:08:04;3.80;;;2.10;;
14965;SDS011;7577;45.226;5.798;2022-11-20T04:10:34;4.27;;;2.30;;
14965;SDS011;7577;45.226;5.798;2022-11-20T04:13:05;4.73;;;2.20;;
14965;SDS011;7577;45.226;5.798;2022-11-20T04:15:35;2.80;;;2.17;;
14965;SDS011;7577;45.226;5.798;2022-11-20T04:18:05;3.13;;;2.40;;
14965;SDS011;7577;45.226;5.798;2022-11-20T04:20:35;3.17;;;2.50;;
14965;SDS011;7577;45.226;5.798;2022-11-20T04:23:05;3.97;;;2.50;;
14965;SDS011;7577;45.226;5.798;2022-11-20T04:25:35;2.03;;;1.83;;
14965;SDS011;7577;45.226;5.798;2022-11-20T04:28:05;2.53;;;2.30;;
14965;SDS011;7577;45.226;5.798;2022-11-20T04:30:35;2.63;;;2.00;;
14965;SDS011;7577;45.226;5.798;2022-11-20T04:33:06;3.07;;;2.10;;
14965;SDS011;7577;45.226;5.798;2022-11-20T04:35:36;2.37;;;2.10;;
14965;SDS011;7577;45.226;5.798;2022-11-20T04:38:07;2.87;;;2.00;;
14965;SDS011;7577;45.226;5.798;2022-11-20T04:40:37;2.80;;;2.03;;
14965;SDS011;7577;45.226;5.798;2022-11-20T04:43:08;5.17;;;2.40;;
14965;SDS011;7577;45.226;5.798;2022-11-20T04:45:50;3.57;;;2.37;;
14965;SDS011;7577;45.226;5.798;2022-11-20T04:48:21;6.03;;;4.93;;
14965;SDS011;7577;45.226;5.798;2022-11-20T04:51:03;6.43;;;4.97;;
14965;SDS011;7577;45.226;5.798;2022-11-20T04:53:33;3.43;;;3.13;;
14965;SDS011;7577;45.226;5.798;2022-11-20T04:56:05;7.27;;;3.60;;
14965;SDS011;7577;45.226;5.798;2022-11-20T04:58:37;3.57;;;2.60;;
14965;SDS011;7577;45.226;5.798;2022-11-20T05:01:10;4.73;;;2.53;;
14965;SDS011;7577;45.226;5.798;2022-11-20T05:03:42;4.73;;;2.50;;
14965;SDS011;7577;45.226;5.798;2022-11-20T05:06:13;3.40;;;2.77;;
14965;SDS011;7577;45.226;5.798;2022-11-20T05:08:45;3.00;;;2.03;;
14965;SDS011;7577;45.226;5.798;2022-11-20T05:11:16;3.20;;;2.13;;
14965;SDS011;7577;45.226;5.798;2022-11-20T05:13:47;4.10;;;2.20;;
14965;SDS011;7577;45.226;5.798;2022-11-20T05:16:19;5.70;;;2.47;;
14965;SDS011;7577;45.226;5.798;2022-11-20T05:18:51;5.20;;;2.63;;
14965;SDS011;7577;45.226;5.798;2022-11-20T05:21:23;3.73;;;2.50;;
14965;SDS011;7577;45.226;5.798;2022-11-20T05:23:53;3.10;;;2.73;;
14965;SDS011;7577;45.226;5.798;2022-11-20T05:26:23;4.33;;;2.50;;
14965;SDS011;7577;45.226;5.798;2022-11-20T05:29:03;4.17;;;2.50;;
14965;SDS011;7577;45.226;5.798;2022-11-20T05:31:33;3.13;;;2.83;;
14965;SDS011;7577;45.226;5.798;2022-11-20T05:34:04;4.73;;;2.90;;
14965;SDS011;7577;45.226;5.798;2022-11-20T05:36:35;4.17;;;2.50;;
14965;SDS011;7577;45.226;5.798;2022-11-20T05:39:05;3.47;;;2.47;;
14965;SDS011;7577;45.226;5.798;2022-11-20T05:41:35;3.50;;;2.37;;
14965;SDS011;7577;45.226;5.798;2022-11-20T05:44:05;3.13;;;2.27;;
14965;SDS011;7577;45.226;5.798;2022-11-20T05:46:35;3.77;;;2.37;;
14965;SDS011;7577;45.226;5.798;2022-11-20T05:49:06;3.83;;;2.83;;
14965;SDS011;7577;45.226;5.798;2022-11-20T05:51:36;3.83;;;2.93;;
14965;SDS011;7577;45.226;5.798;2022-11-20T05:54:20;4.50;;;2.40;;
14965;SDS011;7577;45.226;5.798;2022-11-20T05:56:50;4.97;;;2.30;;
14965;SDS011;7577;45.226;5.798;2022-11-20T05:59:20;2.60;;;2.40;;
14965;SDS011;7577;45.226;5.798;2022-11-20T06:01:50;3.60;;;2.43;;
14965;SDS011;7577;45.226;5.798;2022-11-20T06:04:20;3.60;;;2.43;;
14965;SDS011;7577;45.226;5.798;2022-11-20T06:06:50;3.07;;;2.70;;
14965;SDS011;7577;45.226;5.798;2022-11-20T06:09:20;3.23;;;2.63;;
14965;SDS011;7577;45.226;5.798;2022-11-20T06:11:50;4.97;;;3.10;;
14965;SDS011;7577;45.226;5.798;2022-11-20T06:14:31;3.80;;;2.80;;
14965;SDS011;7577;45.226;5.798;2022-11-20T06:17:02;3.63;;;2.43;;
14965;SDS011;7577;45.226;5.798;2022-11-20T06:19:32;4.70;;;2.80;;
14965;SDS011;7577;45.226;5.798;2022-11-20T06:22:02;3.33;;;3.00;;
14965;SDS011;7577;45.226;5.798;2022-11-20T06:24:46;4.63;;;2.77;;
14965;SDS011;7577;45.226;5.798;2022-11-20T06:27:17;3.63;;;2.70;;
14965;SDS011;7577;45.226;5.798;2022-11-20T06:29:47;3.10;;;2.77;;
14965;SDS011;7577;45.226;5.798;2022-11-20T06:32:17;3.90;;;2.50;;
14965;SDS011;7577;45.226;5.798;2022-11-20T06:34:47;2.57;;;2.07;;
14965;SDS011;7577;45.226;5.798;2022-11-20T06:37:17;3.10;;;2.40;;
14965;SDS011;7577;45.226;5.798;2022-11-20T06:40:07;3.23;;;2.43;;
14965;SDS011;7577;45.226;5.798;2022-11-20T06:42:39;6.03;;;2.90;;
14965;SDS011;7577;45.226;5.798;2022-11-20T06:45:09;2.67;;;2.07;;
14965;SDS011;7577;45.226;5.798;2022-11-20T06:51:28;3.03;;;2.13;;
14965;SDS011;7577;45.226;5.798;2022-11-20T06:54:06;3.00;;;1.90;;
14965;SDS011;7577;45.226;5.798;2022-11-20T06:56:38;3.73;;;2.33;;
14965;SDS011;7577;45.226;5.798;2022-11-20T06:59:10;3.60;;;2.03;;
14965;SDS011;7577;45.226;5.798;2022-11-20T07:01:41;2.17;;;1.87;;
14965;SDS011;7577;45.226;5.798;2022-11-20T07:04:20;2.87;;;2.30;;
14965;SDS011;7577;45.226;5.798;2022-11-20T07:06:51;2.83;;;1.80;;
14965;SDS011;7577;45.226;5.798;2022-11-20T07:09:24;5.70;;;2.10;;
14965;SDS011;7577;45.226;5.798;2022-11-20T07:11:55;4.77;;;4.27;;
14965;SDS011;7577;45.226;5.798;2022-11-20T07:14:25;8.37;;;6.43;;
14965;SDS011;7577;45.226;5.798;2022-11-20T07:17:00;5.97;;;5.17;;
14965;SDS011;7577;45.226;5.798;2022-11-20T07:19:37;6.07;;;4.30;;
14965;SDS011;7577;45.226;5.798;2022-11-20T07:22:07;6.37;;;4.30;;
14965;SDS011;7577;45.226;5.798;2022-11-20T07:24:41;3.90;;;3.50;;
14965;SDS011;7577;45.226;5.798;2022-11-20T07:27:21;3.80;;;3.30;;
14965;SDS011;7577;45.226;5.798;2022-11-20T07:30:00;2.60;;;2.40;;
14965;SDS011;7577;45.226;5.798;2022-11-20T07:32:34;2.30;;;1.70;;
14965;SDS011;7577;45.226;5.798;2022-11-20T07:35:04;3.07;;;1.83;;
14965;SDS011;7577;45.226;5.798;2022-11-20T07:37:37;3.57;;;2.60;;
14965;SDS011;7577;45.226;5.798;2022-11-20T07:40:08;4.60;;;2.37;;
14965;SDS011;7577;45.226;5.798;2022-11-20T07:42:52;3.17;;;1.97;;
14965;SDS011;7577;45.226;5.798;2022-11-20T07:45:30;4.33;;;1.80;;
14965;SDS011;7577;45.226;5.798;2022-11-20T07:48:04;2.37;;;2.03;;
14965;SDS011;7577;45.226;5.798;2022-11-20T07:50:44;4.87;;;2.30;;
14965;SDS011;7577;45.226;5.798;2022-11-20T07:53:17;3.47;;;2.67;;
14965;SDS011;7577;45.226;5.798;2022-11-20T07:55:51;14.27;;;5.90;;
14965;SDS011;7577;45.226;5.798;2022-11-20T07:58:27;13.77;;;6.20;;
14965;SDS011;7577;45.226;5.798;2022-11-20T08:01:03;8.73;;;5.20;;
14965;SDS011;7577;45.226;5.798;2022-11-20T08:03:50;8.07;;;4.90;;
14965;SDS011;7577;45.226;5.798;2022-11-20T08:06:20;6.20;;;4.33;;
14965;SDS011;7577;45.226;5.798;2022-11-20T08:08:52;6.83;;;4.20;;
14965;SDS011;7577;45.226;5.798;2022-11-20T08:11:22;6.73;;;3.93;;
14965;SDS011;7577;45.226;5.798;2022-11-20T08:14:24;6.10;;;3.90;;
14965;SDS011;7577;45.226;5.798;2022-11-20T08:16:55;6.37;;;4.30;;
14965;SDS011;7577;45.226;5.798;2022-11-20T08:19:27;6.40;;;5.03;;
14965;SDS011;7577;45.226;5.798;2022-11-20T08:21:57;5.53;;;4.07;;
14965;SDS011;7577;45.226;5.798;2022-11-20T08:24:27;6.13;;;3.80;;
14965;SDS011;7577;45.226;5.798;2022-11-20T08:26:57;7.10;;;4.33;;
14965;SDS011;7577;45.226;5.798;2022-11-20T08:29:28;5.20;;;4.00;;
14965;SDS011;7577;45.226;5.798;2022-11-20T08:31:58;6.40;;;3.33;;
14965;SDS011;7577;45.226;5.798;2022-11-20T08:34:28;5.10;;;3.50;;
14965;SDS011;7577;45.226;5.798;2022-11-20T08:36:58;4.73;;;3.43;;
14965;SDS011;7577;45.226;5.798;2022-11-20T08:39:30;8.57;;;4.17;;
14965;SDS011;7577;45.226;5.798;2022-11-20T08:42:01;5.67;;;3.70;;
14965;SDS011;7577;45.226;5.798;2022-11-20T08:44:46;6.47;;;3.80;;
14965;SDS011;7577;45.226;5.798;2022-11-20T08:47:21;4.27;;;3.60;;
14965;SDS011;7577;45.226;5.798;2022-11-20T08:50:01;6.07;;;3.83;;
14965;SDS011;7577;45.226;5.798;2022-11-20T08:52:33;6.73;;;4.27;;
14965;SDS011;7577;45.226;5.798;2022-11-20T08:55:07;5.03;;;4.37;;
14965;SDS011;7577;45.226;5.798;2022-11-20T08:57:38;5.10;;;3.70;;
14965;SDS011;7577;45.226;5.798;2022-11-20T09:00:09;5.47;;;4.13;;
14965;SDS011;7577;45.226;5.798;2022-11-20T09:02:41;7.13;;;4.30;;
14965;SDS011;7577;45.226;5.798;2022-11-20T09:05:11;8.03;;;4.77;;
14965;SDS011;7577;45.226;5.798;2022-11-20T09:07:41;4.53;;;3.90;;
14965;SDS011;7577;45.226;5.798;2022-11-20T09:10:11;4.77;;;3.87;;
14965;SDS011;7577;45.226;5.798;2022-11-20T09:12:41;5.50;;;4.00;;
14965;SDS011;7577;45.226;5.798;2022-11-20T09:15:11;5.03;;;4.17;;
14965;SDS011;7577;45.226;5.798;2022-11-20T09:17:41;6.20;;;3.90;;
14965;SDS011;7577;45.226;5.798;2022-11-20T09:20:18;4.97;;;3.97;;
14965;SDS011;7577;45.226;5.798;2022-11-20T09:22:50;4.50;;;4.10;;
14965;SDS011;7577;45.226;5.798;2022-11-20T09:25:21;5.00;;;4.00;;
14965;SDS011;7577;45.226;5.798;2022-11-20T09:27:55;4.27;;;3.80;;
14965;SDS011;7577;45.226;5.798;2022-11-20T09:30:26;5.47;;;4.20;;
14965;SDS011;7577;45.226;5.798;2022-11-20T09:32:56;4.60;;;3.87;;
14965;SDS011;7577;45.226;5.798;2022-11-20T09:35:29;5.10;;;3.53;;
14965;SDS011;7577;45.226;5.798;2022-11-20T09:38:16;5.47;;;3.97;;
14965;SDS011;7577;45.226;5.798;2022-11-20T09:40:54;5.07;;;4.00;;
14965;SDS011;7577;45.226;5.798;2022-11-20T09:43:36;5.30;;;4.30;;
14965;SDS011;7577;45.226;5.798;2022-11-20T09:46:11;5.10;;;4.37;;
14965;SDS011;7577;45.226;5.798;2022-11-20T09:48:45;4.17;;;3.70;;
14965;SDS011;7577;45.226;5.798;2022-11-20T09:51:30;4.67;;;3.80;;
14965;SDS011;7577;45.226;5.798;2022-11-20T09:54:11;6.07;;;3.30;;
14965;SDS011;7577;45.226;5.798;2022-11-20T09:56:46;4.17;;;3.63;;
14965;SDS011;7577;45.226;5.798;2022-11-20T09:59:26;6.17;;;4.00;;
14965;SDS011;7577;45.226;5.798;2022-11-20T10:02:12;5.10;;;3.37;;
14965;SDS011;7577;45.226;5.798;2022-11-20T10:04:45;4.30;;;3.20;;
14965;SDS011;7577;45.226;5.798;2022-11-20T10:07:20;5.30;;;3.53;;
14965;SDS011;7577;45.226;5.798;2022-11-20T10:10:02;3.90;;;3.50;;
14965;SDS011;7577;45.226;5.798;2022-11-20T10:12:35;5.23;;;3.93;;
14965;SDS011;7577;45.226;5.798;2022-11-20T10:15:24;4.23;;;3.00;;
14965;SDS011;7577;45.226;5.798;2022-11-20T10:18:04;5.90;;;3.73;;
14965;SDS011;7577;45.226;5.798;2022-11-20T10:20:46;4.37;;;3.60;;
14965;SDS011;7577;45.226;5.798;2022-11-20T10:23:34;6.97;;;3.50;;
14965;SDS011;7577;45.226;5.798;2022-11-20T10:26:16;4.57;;;2.90;;
14965;SDS011;7577;45.226;5.798;2022-11-20T10:28:51;3.83;;;2.93;;
14965;SDS011;7577;45.226;5.798;2022-11-20T10:31:28;6.00;;;3.00;;
14965;SDS011;7577;45.226;5.798;2022-11-20T10:36:47;4.60;;;3.10;;
14965;SDS011;7577;45.226;5.798;2022-11-20T10:39:25;4.40;;;3.27;;
14965;SDS011;7577;45.226;5.798;2022-11-20T10:42:02;4.17;;;3.23;;
14965;SDS011;7577;45.226;5.798;2022-11-20T10:44:50;6.57;;;3.60;;
14965;SDS011;7577;45.226;5.798;2022-11-20T10:47:30;5.90;;;3.20;;
14965;SDS011;7577;45.226;5.798;2022-11-20T10:50:10;3.27;;;2.77;;
14965;SDS011;7577;45.226;5.798;2022-11-20T10:52:56;3.30;;;3.00;;
14965;SDS011;7577;45.226;5.798;2022-11-20T10:55:33;4.87;;;2.57;;
14965;SDS011;7577;45.226;5.798;2022-11-20T10:58:09;6.50;;;3.57;;
14965;SDS011;7577;45.226;5.798;2022-11-20T11:00:41;4.87;;;2.87;;
14965;SDS011;7577;45.226;5.798;2022-11-20T11:03:20;6.70;;;3.57;;
14965;SDS011;7577;45.226;5.798;2022-11-20T11:05:51;4.90;;;3.13;;
14965;SDS011;7577;45.226;5.798;2022-11-20T11:08:24;3.73;;;3.20;;
14965;SDS011;7577;45.226;5.798;2022-11-20T11:10:58;3.80;;;2.73;;
14965;SDS011;7577;45.226;5.798;2022-11-20T11:13:30;5.20;;;2.90;;
14965;SDS011;7577;45.226;5.798;2022-11-20T11:16:01;7.37;;;3.60;;
14965;SDS011;7577;45.226;5.798;2022-11-20T11:18:36;3.13;;;2.83;;
14965;SDS011;7577;45.226;5.798;2022-11-20T11:21:22;5.07;;;3.10;;
14965;SDS011;7577;45.226;5.798;2022-11-20T11:24:00;3.93;;;2.70;;
14965;SDS011;7577;45.226;5.798;2022-11-20T11:26:34;3.53;;;2.53;;
14965;SDS011;7577;45.226;5.798;2022-11-20T11:29:04;3.10;;;2.30;;
14965;SDS011;7577;45.226;5.798;2022-11-20T11:32:05;4.50;;;2.53;;
14965;SDS011;7577;45.226;5.798;2022-11-20T11:34:37;4.00;;;3.60;;
14965;SDS011;7577;45.226;5.798;2022-11-20T11:37:13;4.50;;;3.00;;
14965;SDS011;7577;45.226;5.798;2022-11-20T11:39:47;3.93;;;2.40;;
14965;SDS011;7577;45.226;5.798;2022-11-20T11:42:31;3.53;;;2.93;;
14965;SDS011;7577;45.226;5.798;2022-11-20T11:47:56;4.77;;;3.20;;
14965;SDS011;7577;45.226;5.798;2022-11-20T11:50:48;4.37;;;2.77;;
14965;SDS011;7577;45.226;5.798;2022-11-20T11:53:23;3.40;;;2.33;;
14965;SDS011;7577;45.226;5.798;2022-11-20T11:56:03;3.87;;;2.80;;
14965;SDS011;7577;45.226;5.798;2022-11-20T11:58:48;3.93;;;3.20;;
14965;SDS011;7577;45.226;5.798;2022-11-20T12:01:29;3.20;;;2.83;;
14965;SDS011;7577;45.226;5.798;2022-11-20T12:04:10;4.90;;;2.93;;
14965;SDS011;7577;45.226;5.798;2022-11-20T12:06:42;3.43;;;2.90;;
14965;SDS011;7577;45.226;5.798;2022-11-20T12:09:18;3.40;;;2.70;;
14965;SDS011;7577;45.226;5.798;2022-11-20T12:11:55;3.93;;;2.50;;
14965;SDS011;7577;45.226;5.798;2022-11-20T12:14:30;4.83;;;2.73;;
14965;SDS011;7577;45.226;5.798;2022-11-20T12:17:00;4.53;;;3.27;;
14965;SDS011;7577;45.226;5.798;2022-11-20T12:19:34;4.23;;;2.90;;
14965;SDS011;7577;45.226;5.798;2022-11-20T12:22:05;4.43;;;2.70;;
14965;SDS011;7577;45.226;5.798;2022-11-20T12:24:41;4.10;;;2.87;;
14965;SDS011;7577;45.226;5.798;2022-11-20T12:33:33;4.37;;;2.60;;
14965;SDS011;7577;45.226;5.798;2022-11-20T12:36:13;4.10;;;3.00;;
14965;SDS011;7577;45.226;5.798;2022-11-20T12:38:57;4.13;;;2.90;;
14965;SDS011;7577;45.226;5.798;2022-11-20T12:41:44;3.97;;;2.93;;
14965;SDS011;7577;45.226;5.798;2022-11-20T12:44:43;3.50;;;2.80;;
14965;SDS011;7577;45.226;5.798;2022-11-20T12:47:43;4.80;;;3.07;;
14965;SDS011;7577;45.226;5.798;2022-11-20T12:50:36;3.43;;;2.60;;
14965;SDS011;7577;45.226;5.798;2022-11-20T12:53:22;4.80;;;3.00;;
14965;SDS011;7577;45.226;5.798;2022-11-20T12:56:01;3.60;;;2.67;;
14965;SDS011;7577;45.226;5.798;2022-11-20T12:58:36;4.27;;;2.90;;
14965;SDS011;7577;45.226;5.798;2022-11-20T13:01:12;3.83;;;3.00;;
14965;SDS011;7577;45.226;5.798;2022-11-20T13:03:50;5.47;;;3.27;;
14965;SDS011;7577;45.226;5.798;2022-11-20T13:06:23;2.80;;;2.50;;
14965;SDS011;7577;45.226;5.798;2022-11-20T13:08:57;4.57;;;2.77;;
14965;SDS011;7577;45.226;5.798;2022-11-20T13:11:31;2.80;;;2.30;;
14965;SDS011;7577;45.226;5.798;2022-11-20T13:14:16;4.50;;;2.77;;
14965;SDS011;7577;45.226;5.798;2022-11-20T13:16:54;3.33;;;2.60;;
14965;SDS011;7577;45.226;5.798;2022-11-20T13:19:28;4.13;;;2.63;;
14965;SDS011;7577;45.226;5.798;2022-11-20T13:22:00;3.90;;;3.00;;
14965;SDS011;7577;45.226;5.798;2022-11-20T13:24:30;4.33;;;2.50;;
14965;SDS011;7577;45.226;5.798;2022-11-20T13:27:05;8.63;;;5.87;;
14965;SDS011;7577;45.226;5.798;2022-11-20T13:29:58;4.17;;;3.23;;
14965;SDS011;7577;45.226;5.798;2022-11-20T13:32:29;4.90;;;3.30;;
14965;SDS011;7577;45.226;5.798;2022-11-20T13:35:10;4.03;;;3.00;;
14965;SDS011;7577;45.226;5.798;2022-11-20T13:37:45;3.70;;;2.60;;
14965;SDS011;7577;45.226;5.798;2022-11-20T13:40:22;4.00;;;3.17;;
14965;SDS011;7577;45.226;5.798;2022-11-20T13:43:00;3.60;;;2.70;;
14965;SDS011;7577;45.226;5.798;2022-11-20T13:45:55;4.30;;;2.80;;
14965;SDS011;7577;45.226;5.798;2022-11-20T13:48:31;4.07;;;2.50;;
14965;SDS011;7577;45.226;5.798;2022-11-20T13:51:26;3.80;;;2.77;;
14965;SDS011;7577;45.226;5.798;2022-11-20T13:54:13;3.73;;;2.50;;
14965;SDS011;7577;45.226;5.798;2022-11-20T13:57:03;3.27;;;2.17;;
14965;SDS011;7577;45.226;5.798;2022-11-20T13:59:40;3.00;;;2.43;;
14965;SDS011;7577;45.226;5.798;2022-11-20T14:02:15;2.63;;;1.83;;
14965;SDS011;7577;45.226;5.798;2022-11-20T14:04:51;3.10;;;1.70;;
14965;SDS011;7577;45.226;5.798;2022-11-20T14:07:34;2.07;;;1.67;;
14965;SDS011;7577;45.226;5.798;2022-11-20T14:10:18;3.40;;;1.97;;
14965;SDS011;7577;45.226;5.798;2022-11-20T14:13:10;2.93;;;1.80;;
14965;SDS011;7577;45.226;5.798;2022-11-20T14:15:45;2.70;;;1.83;;
14965;SDS011;7577;45.226;5.798;2022-11-20T14:18:19;4.10;;;1.80;;
14965;SDS011;7577;45.226;5.798;2022-11-20T14:20:56;2.70;;;1.83;;
14965;SDS011;7577;45.226;5.798;2022-11-20T14:23:31;1.97;;;1.50;;
14965;SDS011;7577;45.226;5.798;2022-11-20T14:26:17;2.17;;;1.60;;
14965;SDS011;7577;45.226;5.798;2022-11-20T14:28:43;3.90;;;2.00;;
14965;SDS011;7577;45.226;5.798;2022-11-20T14:31:21;3.40;;;2.00;;
14965;SDS011;7577;45.226;5.798;2022-11-20T14:34:02;2.53;;;1.87;;
14965;SDS011;7577;45.226;5.798;2022-11-20T14:36:48;2.73;;;1.77;;
14965;SDS011;7577;45.226;5.798;2022-11-20T14:39:29;2.73;;;1.80;;
14965;SDS011;7577;45.226;5.798;2022-11-20T14:42:11;2.80;;;2.00;;
14965;SDS011;7577;45.226;5.798;2022-11-20T14:44:46;3.70;;;1.90;;
14965;SDS011;7577;45.226;5.798;2022-11-20T14:47:21;2.73;;;2.40;;
14965;SDS011;7577;45.226;5.798;2022-11-20T14:49:53;5.13;;;2.23;;
14965;SDS011;7577;45.226;5.798;2022-11-20T14:52:29;3.10;;;1.63;;
14965;SDS011;7577;45.226;5.798;2022-11-20T14:55:30;3.97;;;2.10;;
14965;SDS011;7577;45.226;5.798;2022-11-20T14:58:05;2.03;;;1.70;;
14965;SDS011;7577;45.226;5.798;2022-11-20T15:00:39;2.20;;;1.70;;
14965;SDS011;7577;45.226;5.798;2022-11-20T15:03:15;3.23;;;2.30;;
14965;SDS011;7577;45.226;5.798;2022-11-20T15:05:52;4.87;;;2.37;;
14965;SDS011;7577;45.226;5.798;2022-11-20T15:08:39;4.00;;;2.07;;
14965;SDS011;7577;45.226;5.798;2022-11-20T15:11:25;2.70;;;1.80;;
14965;SDS011;7577;45.226;5.798;2022-11-20T15:14:09;1.93;;;1.40;;
14965;SDS011;7577;45.226;5.798;2022-11-20T15:16:39;4.33;;;2.07;;
14965;SDS011;7577;45.226;5.798;2022-11-20T15:19:13;4.23;;;2.53;;
14965;SDS011;7577;45.226;5.798;2022-11-20T15:21:46;6.87;;;4.20;;
14965;SDS011;7577;45.226;5.798;2022-11-20T15:27:07;7.53;;;5.30;;
14965;SDS011;7577;45.226;5.798;2022-11-20T15:29:43;10.77;;;6.23;;
14965;SDS011;7577;45.226;5.798;2022-11-20T15:32:17;10.90;;;6.73;;
14965;SDS011;7577;45.226;5.798;2022-11-20T15:34:54;7.13;;;4.70;;
14965;SDS011;7577;45.226;5.798;2022-11-20T15:37:32;5.90;;;3.80;;
14965;SDS011;7577;45.226;5.798;2022-11-20T15:40:06;4.53;;;3.10;;
14965;SDS011;7577;45.226;5.798;2022-11-20T15:42:51;4.07;;;3.27;;
14965;SDS011;7577;45.226;5.798;2022-11-20T15:45:36;3.23;;;2.90;;
14965;SDS011;7577;45.226;5.798;2022-11-20T15:48:22;3.03;;;2.70;;
14965;SDS011;7577;45.226;5.798;2022-11-20T15:50:58;2.83;;;2.27;;
14965;SDS011;7577;45.226;5.798;2022-11-20T15:53:33;4.73;;;2.50;;
14965;SDS011;7577;45.226;5.798;2022-11-20T15:56:20;4.10;;;2.77;;
14965;SDS011;7577;45.226;5.798;2022-11-20T15:59:14;3.70;;;2.77;;
14965;SDS011;7577;45.226;5.798;2022-11-20T16:01:47;4.40;;;2.70;;
14965;SDS011;7577;45.226;5.798;2022-11-20T16:04:20;3.40;;;2.80;;
14965;SDS011;7577;45.226;5.798;2022-11-20T16:06:53;7.20;;;4.20;;